Decoded Metar for KMQJ ( in ) (IATA:) | Meteo·Mobile Aviation Weather
aviador You're here:

KMQJ Decoded Metar

in
Report Time2019-10-22 14:16:00
UTC Time2019-10-22 14:36:05
Flight Rules vfr VFR
Wind240° at 13 Gusting to 21 kt
W.Decomp.*RWY 25: 12.8 kt HW 2.3 kt LCW
RWY 16: 2.3 kt HW 12.8 kt RCW
Visibility9999 m
Phenomena:N/A
Clouds:N/A
Expected CloudBase > 2,000 ft AGL from Temp-Dew spread
CeilingNone
Temp11°C
Dew Point06°C (72% RH)
AAT5.4°C
QNH1008 hPa
Raw Report
KMQJ 221416Z AUTO 24013G21KT 10SM CLR 11/06 A2978 RMK AO1=

Extra information for KMQJ:More info

Social comments